createdAt,value
2018-03-27T00:00:15.094Z,87.85
2018-03-27T00:02:43.444Z,88.29
2018-03-27T00:05:15.663Z,88.77
2018-03-27T00:07:43.944Z,88.72
2018-03-27T00:10:12.274Z,88.80
2018-03-27T00:12:40.614Z,88.93
2018-03-27T00:15:08.942Z,88.99
2018-03-27T00:17:37.331Z,89.28
2018-03-27T00:20:05.989Z,89.41
2018-03-27T00:22:34.311Z,89.50
2018-03-27T00:25:02.727Z,89.41
2018-03-27T00:27:42.917Z,89.76
2018-03-27T00:30:23.169Z,89.83
2018-03-27T00:33:03.485Z,89.82
2018-03-27T00:35:43.605Z,89.73
2018-03-27T00:38:23.864Z,89.46
2018-03-27T00:40:51.682Z,89.22
2018-03-27T00:43:20.061Z,89.33
2018-03-27T00:45:48.442Z,89.27
2018-03-27T00:48:16.872Z,89.18
2018-03-27T00:50:45.204Z,89.13
2018-03-27T00:53:13.550Z,88.98
2018-03-27T00:55:41.888Z,89.25
2018-03-27T00:58:10.302Z,88.84
2018-03-27T01:00:41.146Z,88.97
2018-03-27T01:03:09.533Z,88.82
2018-03-27T01:05:37.936Z,89.04
2018-03-27T01:08:06.288Z,88.99
2018-03-27T01:10:34.626Z,88.79
2018-03-27T01:13:02.990Z,88.11
2018-03-27T01:15:31.388Z,88.02
2018-03-27T01:17:59.737Z,87.96
2018-03-27T01:20:28.995Z,88.38
2018-03-27T01:22:57.397Z,88.56
2018-03-27T01:25:25.782Z,88.62
2018-03-27T01:27:54.254Z,88.31
2018-03-27T01:30:22.586Z,88.26
2018-03-27T01:32:50.926Z,88.17
2018-03-27T01:35:19.253Z,88.24
2018-03-27T01:37:47.648Z,88.06
2018-03-27T01:40:16.062Z,87.96
2018-03-27T01:42:44.404Z,88.07
2018-03-27T01:45:12.748Z,88.10
2018-03-27T01:47:41.102Z,87.69
2018-03-27T01:50:09.509Z,87.92
2018-03-27T01:52:37.900Z,87.70
2018-03-27T01:55:06.301Z,87.95
2018-03-27T01:57:34.703Z,87.96
2018-03-27T02:00:03.068Z,87.60
2018-03-27T02:02:31.393Z,87.78
2018-03-27T02:04:59.744Z,87.55
2018-03-27T02:07:28.166Z,87.84
2018-03-27T02:09:56.557Z,87.59
2018-03-27T02:12:30.580Z,87.60
2018-03-27T02:15:04.524Z,87.57
2018-03-27T02:17:38.522Z,87.57
2018-03-27T02:20:12.545Z,87.52
2018-03-27T02:22:41.191Z,87.38
2018-03-27T02:25:09.640Z,87.48
2018-03-27T02:27:37.984Z,87.75
2018-03-27T02:30:06.368Z,87.52
2018-03-27T02:32:34.712Z,87.65
2018-03-27T02:35:03.057Z,87.48
2018-03-27T02:37:31.381Z,87.40
2018-03-27T02:39:59.785Z,87.58
2018-03-27T02:42:28.178Z,87.28
2018-03-27T02:44:56.519Z,87.28
2018-03-27T02:47:24.839Z,87.61
2018-03-27T02:49:53.354Z,87.57
2018-03-27T02:52:21.745Z,87.57
2018-03-27T02:54:50.139Z,87.55
2018-03-27T02:57:18.495Z,87.58
2018-03-27T02:59:46.820Z,86.73
2018-03-27T03:02:15.205Z,86.45
2018-03-27T03:04:43.536Z,86.66
2018-03-27T03:07:11.888Z,86.96
2018-03-27T03:09:40.301Z,87.13
2018-03-27T03:12:08.659Z,86.98
2018-03-27T03:14:36.996Z,87.12
2018-03-27T03:17:05.485Z,87.05
2018-03-27T03:19:33.819Z,86.92
2018-03-27T03:22:02.170Z,86.77
2018-03-27T03:24:30.498Z,86.90
2018-03-27T03:26:58.843Z,86.98
2018-03-27T03:29:27.211Z,86.68
2018-03-27T03:31:55.549Z,86.76
2018-03-27T03:34:23.887Z,86.51
2018-03-27T03:36:52.305Z,86.66
2018-03-27T03:39:20.624Z,86.79
2018-03-27T03:41:48.963Z,86.51
2018-03-27T03:44:17.297Z,86.42
2018-03-27T03:46:45.780Z,86.50
2018-03-27T03:49:14.087Z,86.52
2018-03-27T03:51:42.460Z,86.37
2018-03-27T03:54:10.846Z,86.14
2018-03-27T03:56:39.156Z,85.98
2018-03-27T03:59:08.596Z,85.78
2018-03-27T04:01:36.950Z,85.83
2018-03-27T04:04:05.289Z,85.61
2018-03-27T04:06:33.627Z,85.91
2018-03-27T04:09:01.976Z,85.88
2018-03-27T04:11:30.340Z,86.34
2018-03-27T04:13:58.917Z,85.98
2018-03-27T04:16:27.258Z,85.93
2018-03-27T04:18:55.641Z,85.62
2018-03-27T04:21:24.036Z,85.68
2018-03-27T04:23:53.076Z,85.37
2018-03-27T04:26:21.386Z,85.70
2018-03-27T04:28:49.728Z,85.51
2018-03-27T04:31:18.058Z,84.64
2018-03-27T04:33:46.453Z,84.77
2018-03-27T04:36:14.852Z,84.87
2018-03-27T04:38:43.196Z,84.64
2018-03-27T04:41:11.519Z,84.85
2018-03-27T04:43:39.897Z,84.66
2018-03-27T04:46:08.332Z,84.63
2018-03-27T04:48:36.821Z,85.25
2018-03-27T04:51:05.221Z,85.40
2018-03-27T04:53:33.611Z,85.26
2018-03-27T04:56:01.949Z,85.00
2018-03-27T04:58:30.428Z,84.84
2018-03-27T05:00:58.905Z,84.86
2018-03-27T05:03:27.235Z,87.44
2018-03-27T05:05:55.625Z,81.68
2018-03-27T05:08:24.227Z,80.37
2018-03-27T05:10:52.681Z,76.81
2018-03-27T05:13:21.091Z,75.53
2018-03-27T05:15:49.484Z,76.22
2018-03-27T05:18:17.832Z,79.03
2018-03-27T05:20:46.149Z,80.03
2018-03-27T05:23:14.611Z,81.23
2018-03-27T05:25:43.018Z,81.95
2018-03-27T05:28:11.376Z,82.01
2018-03-27T05:30:39.807Z,82.31
2018-03-27T05:33:08.178Z,82.42
2018-03-27T05:35:36.589Z,82.93
2018-03-27T05:38:04.940Z,83.04
2018-03-27T05:40:33.364Z,83.32
2018-03-27T05:43:01.787Z,82.80
2018-03-27T05:45:30.173Z,83.20
2018-03-27T05:47:58.512Z,83.93
2018-03-27T05:50:26.892Z,83.59
2018-03-27T05:52:55.242Z,83.63
2018-03-27T05:55:23.801Z,83.94
2018-03-27T05:57:52.116Z,84.21
2018-03-27T06:00:20.450Z,84.12
2018-03-27T06:02:48.805Z,83.57
2018-03-27T06:05:17.147Z,83.68
2018-03-27T06:07:45.644Z,83.74
2018-03-27T06:10:13.973Z,83.25
2018-03-27T06:12:42.317Z,83.32
2018-03-27T06:15:10.658Z,83.49
2018-03-27T06:17:38.998Z,83.21
2018-03-27T06:20:07.377Z,83.08
2018-03-27T06:22:35.734Z,82.83
2018-03-27T06:25:04.091Z,83.06
2018-03-27T06:27:32.444Z,82.31
2018-03-27T06:30:00.766Z,82.25
2018-03-27T06:32:29.117Z,83.08
2018-03-27T06:34:57.487Z,81.93
2018-03-27T06:37:25.849Z,81.63
2018-03-27T06:39:54.173Z,82.11
2018-03-27T06:42:22.514Z,82.25
2018-03-27T06:44:50.865Z,82.16
2018-03-27T06:47:19.227Z,82.09
2018-03-27T06:49:47.651Z,81.60
2018-03-27T06:52:17.102Z,80.53
2018-03-27T06:54:45.457Z,79.15
2018-03-27T06:57:13.808Z,79.31
2018-03-27T06:59:42.135Z,79.22
2018-03-27T07:02:10.493Z,78.83
2018-03-27T07:04:38.878Z,79.28
2018-03-27T07:07:07.217Z,78.49
2018-03-27T07:09:35.666Z,77.85
2018-03-27T07:12:04.031Z,79.23
2018-03-27T07:14:32.446Z,78.10
2018-03-27T07:17:00.815Z,77.02
2018-03-27T07:19:29.187Z,76.98
2018-03-27T07:21:57.580Z,77.77
2018-03-27T07:24:25.952Z,77.57
2018-03-27T07:26:54.333Z,77.47
2018-03-27T07:29:22.671Z,76.39
2018-03-27T07:31:50.995Z,76.14
2018-03-27T07:34:19.333Z,76.84
2018-03-27T07:36:47.722Z,77.10
2018-03-27T07:39:16.092Z,75.28
2018-03-27T07:41:44.419Z,75.88
2018-03-27T07:44:12.789Z,77.50
2018-03-27T07:46:41.127Z,76.59
2018-03-27T07:49:09.484Z,75.21
2018-03-27T07:51:37.822Z,76.11
2018-03-27T07:54:06.317Z,75.32
2018-03-27T07:56:34.691Z,74.99
2018-03-27T07:59:03.034Z,74.21
2018-03-27T08:01:31.380Z,73.45
2018-03-27T08:03:59.746Z,72.01
2018-03-27T08:06:28.116Z,73.56
2018-03-27T08:08:56.513Z,72.13
2018-03-27T08:11:24.912Z,70.74
2018-03-27T08:13:53.267Z,69.22
2018-03-27T08:16:21.619Z,70.24
2018-03-27T08:18:49.981Z,69.35
2018-03-27T08:21:18.381Z,69.99
2018-03-27T08:23:46.804Z,71.48
2018-03-27T08:26:15.114Z,72.21
2018-03-27T08:28:43.447Z,72.56
2018-03-27T08:31:12.150Z,71.32
2018-03-27T08:33:40.541Z,71.35
2018-03-27T08:36:08.890Z,71.11
2018-03-27T08:38:37.245Z,69.55
2018-03-27T08:41:05.572Z,70.52
2018-03-27T08:43:33.996Z,70.74
2018-03-27T08:46:02.323Z,70.76
2018-03-27T08:48:30.660Z,71.03
2018-03-27T08:50:59.079Z,69.33
2018-03-27T08:53:27.393Z,67.66
2018-03-27T08:55:55.736Z,64.57
2018-03-27T08:58:24.161Z,61.14
2018-03-27T09:00:52.486Z,57.83
2018-03-27T09:03:20.953Z,53.98
2018-03-27T09:05:49.338Z,51.99
2018-03-27T09:08:17.674Z,52.20
2018-03-27T09:10:46.056Z,52.89
2018-03-27T09:13:14.402Z,50.64
2018-03-27T09:15:42.759Z,45.37
2018-03-27T09:18:11.115Z,42.26
2018-03-27T09:20:39.456Z,45.87
2018-03-27T09:23:07.888Z,47.26
2018-03-27T09:25:36.228Z,48.75
2018-03-27T09:28:04.564Z,49.98
2018-03-27T09:30:32.933Z,52.32
2018-03-27T09:33:01.267Z,49.58
2018-03-27T09:35:29.977Z,46.69
2018-03-27T09:37:58.376Z,48.34
2018-03-27T09:40:26.751Z,47.57
2018-03-27T09:42:56.131Z,43.32
2018-03-27T09:45:24.471Z,42.54
2018-03-27T09:47:52.841Z,39.49
2018-03-27T09:50:21.341Z,41.29
2018-03-27T09:52:49.667Z,41.78
2018-03-27T09:55:18.795Z,43.33
2018-03-27T09:57:47.162Z,45.84
2018-03-27T10:00:15.520Z,47.27
2018-03-27T10:02:44.055Z,50.35
2018-03-27T10:05:12.405Z,50.89
2018-03-27T10:07:40.746Z,50.94
2018-03-27T10:10:09.093Z,51.76
2018-03-27T10:12:37.420Z,49.82
2018-03-27T10:15:05.776Z,46.79
2018-03-27T10:17:34.145Z,47.81
2018-03-27T10:20:02.501Z,42.89
2018-03-27T10:22:30.928Z,39.98
2018-03-27T10:24:59.268Z,42.35
2018-03-27T10:27:27.613Z,44.46
2018-03-27T10:29:55.948Z,45.48
2018-03-27T10:32:24.418Z,48.36
2018-03-27T10:34:52.775Z,48.53
2018-03-27T10:37:21.115Z,47.00
2018-03-27T10:39:49.502Z,47.63
2018-03-27T10:42:17.869Z,46.47
2018-03-27T10:44:46.224Z,41.24
2018-03-27T10:47:14.626Z,38.31
2018-03-27T10:49:43.009Z,40.75
2018-03-27T10:52:11.341Z,43.40
2018-03-27T10:54:39.734Z,43.16
2018-03-27T10:57:08.084Z,45.38
2018-03-27T10:59:36.419Z,47.22
2018-03-27T11:02:04.761Z,45.37
2018-03-27T11:04:33.114Z,41.90
2018-03-27T11:07:01.456Z,40.39
2018-03-27T11:09:29.794Z,44.08
2018-03-27T11:11:58.141Z,49.04
2018-03-27T11:14:26.557Z,52.46
2018-03-27T11:16:55.084Z,54.33
2018-03-27T11:19:23.414Z,54.46
2018-03-27T11:21:51.771Z,53.02
2018-03-27T11:24:20.142Z,53.75
2018-03-27T11:26:48.480Z,50.70
2018-03-27T11:29:17.166Z,50.39
2018-03-27T11:31:45.563Z,52.52
2018-03-27T11:34:13.910Z,53.36
2018-03-27T11:36:42.281Z,48.98
2018-03-27T11:39:11.142Z,48.50
2018-03-27T11:41:39.751Z,45.75
2018-03-27T11:44:08.135Z,46.11
2018-03-27T11:46:36.454Z,44.95
2018-03-27T11:49:04.788Z,42.89
2018-03-27T11:51:33.130Z,42.96
2018-03-27T11:54:01.456Z,43.13
2018-03-27T11:56:29.784Z,43.01
2018-03-27T11:58:58.142Z,43.05
2018-03-27T12:01:26.465Z,41.65
2018-03-27T12:03:55.556Z,42.63
2018-03-27T12:06:23.899Z,42.52
2018-03-27T12:08:52.234Z,42.32
2018-03-27T12:11:20.553Z,41.99
2018-03-27T12:13:48.946Z,40.10
2018-03-27T12:16:17.289Z,42.02
2018-03-27T12:18:45.678Z,44.39
2018-03-27T12:21:14.036Z,48.30
2018-03-27T12:23:42.398Z,46.98
2018-03-27T12:26:10.732Z,45.77
2018-03-27T12:28:39.093Z,45.72
2018-03-27T12:31:07.528Z,44.23
2018-03-27T12:33:35.897Z,44.36
2018-03-27T12:36:04.222Z,43.76
2018-03-27T12:38:32.608Z,44.60
2018-03-27T12:41:00.967Z,46.00
2018-03-27T12:43:29.734Z,46.55
2018-03-27T12:45:58.065Z,46.14
2018-03-27T12:48:26.510Z,43.41
2018-03-27T12:50:54.935Z,42.25
2018-03-27T12:53:23.254Z,41.56
2018-03-27T12:55:51.596Z,40.21
2018-03-27T12:58:19.929Z,41.64
2018-03-27T13:00:48.324Z,40.83
2018-03-27T13:03:16.639Z,38.69
2018-03-27T13:05:45.038Z,39.40
2018-03-27T13:08:13.360Z,39.25
2018-03-27T13:10:41.697Z,39.22
2018-03-27T13:13:10.014Z,37.54
2018-03-27T13:15:38.373Z,36.48
2018-03-27T13:18:06.994Z,37.09
2018-03-27T13:20:35.328Z,37.16
2018-03-27T13:23:03.695Z,36.06
2018-03-27T13:25:32.056Z,36.27
2018-03-27T13:28:00.398Z,36.41
2018-03-27T13:30:28.718Z,35.68
2018-03-27T13:32:57.076Z,34.76
2018-03-27T13:35:25.441Z,33.95
2018-03-27T13:37:53.861Z,33.58
2018-03-27T13:40:22.201Z,32.69
2018-03-27T13:42:50.531Z,33.40
2018-03-27T13:45:18.938Z,33.48
2018-03-27T13:47:47.289Z,33.17
2018-03-27T13:50:15.597Z,32.40
2018-03-27T13:52:43.943Z,33.48
2018-03-27T13:55:12.272Z,33.79
2018-03-27T13:57:40.665Z,32.28
2018-03-27T14:00:09.018Z,33.15
2018-03-27T14:02:37.411Z,34.13
2018-03-27T14:05:05.742Z,33.96
2018-03-27T14:07:34.128Z,34.97
2018-03-27T14:10:02.456Z,36.84
2018-03-27T14:12:30.778Z,36.56
2018-03-27T14:14:59.157Z,35.26
2018-03-27T14:17:27.459Z,34.29
2018-03-27T14:19:56.151Z,32.84
2018-03-27T14:22:24.500Z,33.61
2018-03-27T14:24:52.840Z,33.13
2018-03-27T14:27:21.155Z,32.85
2018-03-27T14:29:49.493Z,33.81
2018-03-27T14:32:17.842Z,34.67
2018-03-27T14:34:46.173Z,35.09
2018-03-27T14:37:14.505Z,34.43
2018-03-27T14:39:42.887Z,34.29
2018-03-27T14:42:11.300Z,33.95
2018-03-27T14:44:39.624Z,33.10
2018-03-27T14:47:07.980Z,33.04
2018-03-27T14:49:36.306Z,34.03
2018-03-27T14:52:04.647Z,35.40
2018-03-27T14:54:33.000Z,33.25
2018-03-27T14:57:01.426Z,34.07
2018-03-27T14:59:29.780Z,33.70
2018-03-27T15:01:58.319Z,34.92
2018-03-27T15:04:26.650Z,34.21
2018-03-27T15:06:55.187Z,34.78
2018-03-27T15:09:23.537Z,35.00
2018-03-27T15:11:51.877Z,34.80
2018-03-27T15:14:20.211Z,34.96
2018-03-27T15:16:48.522Z,35.51
2018-03-27T15:19:16.862Z,36.82
2018-03-27T15:21:45.206Z,34.48
2018-03-27T15:24:13.554Z,35.72
2018-03-27T15:26:41.983Z,34.90
2018-03-27T15:29:10.337Z,35.78
2018-03-27T15:31:38.733Z,36.59
2018-03-27T15:34:07.286Z,36.11
2018-03-27T15:36:35.600Z,37.01
2018-03-27T15:39:03.996Z,36.99
2018-03-27T15:41:32.404Z,37.62
2018-03-27T15:44:00.751Z,38.20
2018-03-27T15:46:29.111Z,37.83
2018-03-27T15:48:57.494Z,37.90
2018-03-27T15:51:25.911Z,38.02
2018-03-27T15:53:54.248Z,37.49
2018-03-27T15:56:22.652Z,37.58
2018-03-27T15:58:50.978Z,37.44
2018-03-27T16:01:19.392Z,38.20
2018-03-27T16:03:47.723Z,37.94
2018-03-27T16:06:16.085Z,39.65
2018-03-27T16:08:44.437Z,39.88
2018-03-27T16:11:12.762Z,40.28
2018-03-27T16:13:41.297Z,40.14
2018-03-27T16:16:09.737Z,39.95
2018-03-27T16:18:38.109Z,40.03
2018-03-27T16:21:06.886Z,39.87
2018-03-27T16:23:35.456Z,39.81
2018-03-27T16:26:03.843Z,41.66
2018-03-27T16:28:32.145Z,41.76
2018-03-27T16:31:00.474Z,41.48
2018-03-27T16:33:28.810Z,41.74
2018-03-27T16:35:57.314Z,44.14
2018-03-27T16:38:25.688Z,42.75
2018-03-27T16:40:54.003Z,42.68
2018-03-27T16:43:22.317Z,44.03
2018-03-27T16:45:50.654Z,42.27
2018-03-27T16:48:19.040Z,43.97
2018-03-27T16:50:47.648Z,44.19
2018-03-27T16:53:15.964Z,45.14
2018-03-27T16:55:44.268Z,43.42
2018-03-27T16:58:12.594Z,45.75
2018-03-27T17:00:40.903Z,45.47
2018-03-27T17:03:09.226Z,46.74
2018-03-27T17:05:37.541Z,47.47
2018-03-27T17:08:05.885Z,47.24
2018-03-27T17:10:34.269Z,48.01
2018-03-27T17:13:02.599Z,49.00
2018-03-27T17:15:30.928Z,48.15
2018-03-27T17:17:59.275Z,50.26
2018-03-27T17:20:27.584Z,50.72
2018-03-27T17:22:56.070Z,50.48
2018-03-27T17:25:24.413Z,51.08
2018-03-27T17:27:52.810Z,52.03
2018-03-27T17:30:21.208Z,52.37
2018-03-27T17:32:49.708Z,52.88
2018-03-27T17:35:18.017Z,53.30
2018-03-27T17:37:46.347Z,53.10
2018-03-27T17:40:14.688Z,54.77
2018-03-27T17:42:43.021Z,54.51
2018-03-27T17:45:11.521Z,54.58
2018-03-27T17:47:39.836Z,54.23
2018-03-27T17:50:08.247Z,54.74
2018-03-27T17:52:36.588Z,57.50
2018-03-27T17:55:04.914Z,58.12
2018-03-27T17:57:33.236Z,58.14
2018-03-27T18:00:01.832Z,56.61
2018-03-27T18:02:30.188Z,57.13
2018-03-27T18:04:58.585Z,56.93
2018-03-27T18:07:26.964Z,58.03
2018-03-27T18:09:55.309Z,57.78
2018-03-27T18:12:23.757Z,57.74
2018-03-27T18:14:52.217Z,56.36
2018-03-27T18:17:20.590Z,56.92
2018-03-27T18:19:49.046Z,56.43
2018-03-27T18:22:17.369Z,57.68
2018-03-27T18:24:45.755Z,58.91
2018-03-27T18:27:14.115Z,59.40
2018-03-27T18:29:42.484Z,59.97
2018-03-27T18:32:10.798Z,59.26
2018-03-27T18:34:39.137Z,59.77
2018-03-27T18:37:07.557Z,60.15
2018-03-27T18:39:36.191Z,60.28
2018-03-27T18:42:04.506Z,60.60
2018-03-27T18:44:32.842Z,61.71
2018-03-27T18:47:01.171Z,61.94
2018-03-27T18:49:29.507Z,62.08
2018-03-27T18:51:57.883Z,63.52
2018-03-27T18:54:26.193Z,64.42
2018-03-27T18:56:54.522Z,63.62
2018-03-27T18:59:22.883Z,62.94
2018-03-27T19:01:51.218Z,62.19
2018-03-27T19:04:19.530Z,61.98
2018-03-27T19:06:47.876Z,62.13
2018-03-27T19:09:16.206Z,62.45
2018-03-27T19:11:44.546Z,62.10
2018-03-27T19:14:12.856Z,62.24
2018-03-27T19:16:41.185Z,62.00
2018-03-27T19:19:09.498Z,61.95
2018-03-27T19:21:37.917Z,62.15
2018-03-27T19:24:06.308Z,61.93
2018-03-27T19:26:34.703Z,62.21
2018-03-27T19:29:03.046Z,61.94
2018-03-27T19:31:31.394Z,62.26
2018-03-27T19:33:59.727Z,62.36
2018-03-27T19:36:28.069Z,62.43
2018-03-27T19:38:56.390Z,62.76
2018-03-27T19:41:24.746Z,62.75
2018-03-27T19:43:53.087Z,62.88
2018-03-27T19:46:21.458Z,62.83
2018-03-27T19:48:49.841Z,63.12
2018-03-27T19:51:18.221Z,63.33
2018-03-27T19:53:46.626Z,63.33
2018-03-27T19:56:15.064Z,63.50
2018-03-27T19:58:43.401Z,63.65
2018-03-27T20:01:11.736Z,63.91
2018-03-27T20:03:40.071Z,64.09
2018-03-27T20:06:08.413Z,64.49
2018-03-27T20:08:36.763Z,64.82
2018-03-27T20:11:05.153Z,65.05
2018-03-27T20:13:33.497Z,64.75
2018-03-27T20:16:02.035Z,65.34
2018-03-27T20:18:30.334Z,65.40
2018-03-27T20:20:58.667Z,65.34
2018-03-27T20:23:27.015Z,65.25
2018-03-27T20:25:55.449Z,65.31
2018-03-27T20:28:23.812Z,65.32
2018-03-27T20:30:52.136Z,65.14
2018-03-27T20:33:20.490Z,65.21
2018-03-27T20:35:48.854Z,65.49
2018-03-27T20:38:17.224Z,65.50
2018-03-27T20:40:45.680Z,65.42
2018-03-27T20:43:14.069Z,65.28
2018-03-27T20:45:42.430Z,65.53
2018-03-27T20:48:10.782Z,65.71
2018-03-27T20:50:39.104Z,65.85
2018-03-27T20:53:07.451Z,65.69
2018-03-27T20:55:35.814Z,65.67
2018-03-27T20:58:04.349Z,65.91
2018-03-27T21:00:32.699Z,65.83
2018-03-27T21:03:01.110Z,65.59
2018-03-27T21:05:29.498Z,65.43
2018-03-27T21:07:57.891Z,65.26
2018-03-27T21:10:26.213Z,65.48
2018-03-27T21:12:54.593Z,65.74
2018-03-27T21:15:23.111Z,65.79
2018-03-27T21:17:51.432Z,65.68
2018-03-27T21:20:20.424Z,65.90
2018-03-27T21:22:48.761Z,65.89
2018-03-27T21:25:17.088Z,66.29
2018-03-27T21:27:45.681Z,66.21
2018-03-27T21:30:14.816Z,66.28
2018-03-27T21:32:43.175Z,66.42
2018-03-27T21:35:11.496Z,66.58
2018-03-27T21:37:39.820Z,66.93
2018-03-27T21:40:08.213Z,67.01
2018-03-27T21:42:36.533Z,66.85
2018-03-27T21:45:04.870Z,66.50
2018-03-27T21:47:33.262Z,66.22
2018-03-27T21:50:01.600Z,66.31
2018-03-27T21:52:29.952Z,66.51
2018-03-27T21:54:58.334Z,66.34
2018-03-27T21:57:26.695Z,66.00
2018-03-27T21:59:55.009Z,65.98
2018-03-27T22:02:23.444Z,66.17
2018-03-27T22:04:51.769Z,66.16
2018-03-27T22:07:20.122Z,66.62
2018-03-27T22:09:48.659Z,66.78
2018-03-27T22:12:17.150Z,66.59
2018-03-27T22:14:45.598Z,66.91
2018-03-27T22:17:13.994Z,66.87
2018-03-27T22:19:42.321Z,67.41
2018-03-27T22:22:10.709Z,67.33
2018-03-27T22:24:39.052Z,66.78
2018-03-27T22:27:07.447Z,67.64
2018-03-27T22:29:35.777Z,67.60
2018-03-27T22:32:04.121Z,67.04
2018-03-27T22:34:32.518Z,67.47
2018-03-27T22:37:00.925Z,67.50
2018-03-27T22:39:29.268Z,66.90
2018-03-27T22:41:57.640Z,66.48
2018-03-27T22:44:25.988Z,66.04
2018-03-27T22:46:54.419Z,65.93
2018-03-27T22:49:22.859Z,66.16
2018-03-27T22:51:51.159Z,66.19
2018-03-27T22:54:19.562Z,65.76
2018-03-27T22:56:48.000Z,65.87
2018-03-27T22:59:16.328Z,65.49
2018-03-27T23:01:44.681Z,65.41
2018-03-27T23:04:13.016Z,65.37
2018-03-27T23:06:41.356Z,64.95
2018-03-27T23:09:09.719Z,65.06
2018-03-27T23:11:38.049Z,65.06
2018-03-27T23:14:06.368Z,65.14
2018-03-27T23:16:35.072Z,64.83
2018-03-27T23:19:03.470Z,64.32
2018-03-27T23:21:31.853Z,64.46
2018-03-27T23:24:00.178Z,64.42
2018-03-27T23:26:28.754Z,64.41
2018-03-27T23:28:57.114Z,63.96
2018-03-27T23:31:25.445Z,64.20
2018-03-27T23:33:53.773Z,63.79
2018-03-27T23:36:22.104Z,64.11
2018-03-27T23:38:50.441Z,64.71
2018-03-27T23:41:18.788Z,64.30
2018-03-27T23:43:47.138Z,64.21
2018-03-27T23:46:15.484Z,63.70
2018-03-27T23:48:43.797Z,63.97
2018-03-27T23:51:12.147Z,64.01
2018-03-27T23:53:40.548Z,65.84
2018-03-27T23:56:08.888Z,66.03
2018-03-27T23:58:37.242Z,65.97
